Home   Weather   India   Yavatmal   Past weeks
Flag for India

Past Weather in Yavatmal, Maharashtra, India — Yesterday and Last 2 Weeks

Currently: 97 °F. Haze. (Weather station: Nagpur Sonegaon, India). See more current weather

Past Weather in Yavatmal — Graph

°F

Yavatmal Temperature Yesterday

Maximum temperature yesterday: 113 °F (at 4:00 pm)
Minimum temperature yesterday: 90 °F (at 2:30 am)
Average temperature yesterday: 100 °F

High & Low Weather Summary for the Past Weeks

 TemperatureHumidityPressure
High113 °F (May 27, 1:30 pm)89% (May 18, 6:00 am)29.92 "Hg (May 18, 6:00 am)
Low77 °F (May 15, 4:30 am)16% (May 27, 5:30 pm)29.42 "Hg (May 26, 4:30 pm)
Average93 °F56%29.66 "Hg
* Reported May 14 7:30 am — May 29 8:00 am, Yavatmal. Weather by CustomWeather, © 2024

Note: Actual official high and low records may vary slightly from our data, if they occured in-between our weather recording intervals... More about our weather records

Yavatmal Weather History for the Previous 24 Hours

Scroll right to see more
 ConditionsComfort  
Time TempWeatherWind HumidityBarometerVisibility
8:00 am
Wed, May 29
95 °FHaze.15 mph50%29.56 "Hg3 mi
7:30 am93 °FHaze.12 mph53%29.56 "Hg3 mi
6:30 am91 °FHaze.9 mph52%29.56 "Hg2 mi
6:00 am91 °FHaze.12 mph52%29.53 "Hg2 mi
5:30 am93 °FHaze.14 mph49%29.53 "Hg2 mi
5:00 am93 °FHaze.12 mph47%29.50 "Hg2 mi
4:30 am93 °FPassing clouds.12 mph47%29.50 "Hg2 mi
4:00 am93 °FPassing clouds.12 mph47%29.50 "Hg2 mi
3:30 am88 °FPassing clouds.5 mph55%29.50 "Hg2 mi
3:00 am88 °FPassing clouds.2 mph59%29.50 "Hg2 mi
2:30 am88 °FPassing clouds.5 mph55%29.50 "Hg2 mi
2:00 am91 °FPassing clouds.2 mph49%29.50 "Hg2 mi
1:30 am91 °FPassing clouds.3 mph49%29.50 "Hg2 mi
1:00 am93 °FPassing clouds.2 mph47%29.50 "Hg2 mi
12:30 am91 °FPassing clouds.5 mph49%29.53 "Hg2 mi
12:00 am90 °FPassing clouds.2 mph52%29.53 "Hg2 mi
11:30 pm
Tue, May 28
91 °FPassing clouds.2 mph52%29.53 "Hg2 mi
10:30 pm95 °FPassing clouds.No wind47%29.53 "Hg2 mi
10:00 pm97 °FPassing clouds.2 mph42%29.53 "Hg2 mi
9:30 pm99 °FPassing clouds.2 mph37%29.53 "Hg2 mi
9:00 pm99 °FPassing clouds.2 mph37%29.53 "Hg2 mi
8:30 pm100 °FPassing clouds.3 mph35%29.50 "Hg3 mi
8:00 pm102 °FPassing clouds.3 mph33%29.50 "Hg3 mi
7:30 pm106 °FPassing clouds.7 mph28%29.47 "Hg3 mi
7:00 pm108 °FScattered clouds.8 mph25%29.47 "Hg3 mi
6:30 pm109 °FScattered clouds.9 mph23%29.45 "Hg3 mi
6:00 pm111 °FScattered clouds.10 mph21%29.45 "Hg3 mi
5:30 pm111 °FScattered clouds.12 mph22%29.45 "Hg3 mi
5:00 pm113 °FScattered clouds.14 mph22%29.45 "Hg3 mi
4:30 pm113 °FScattered clouds.9 mph25%29.45 "Hg3 mi
4:00 pm113 °FScattered clouds.12 mph27%29.45 "Hg3 mi
3:30 pm111 °FHaze.8 mph30%29.45 "Hg3 mi
3:00 pm111 °FHaze.14 mph30%29.45 "Hg3 mi
2:30 pm111 °FHaze.12 mph30%29.47 "Hg3 mi
2:00 pm109 °FHaze.12 mph34%29.47 "Hg3 mi
12:30 pm108 °FHaze.14 mph38%29.53 "Hg3 mi
12:00 pm106 °FHaze.8 mph40%29.53 "Hg3 mi
11:30 am106 °FHaze.12 mph40%29.53 "Hg3 mi
10:30 am102 °FHaze.12 mph48%29.56 "Hg3 mi
10:00 am100 °FHaze.17 mph47%29.56 "Hg3 mi
9:30 am100 °FHaze.13 mph47%29.56 "Hg3 mi
9:00 am99 °FHaze.13 mph50%29.56 "Hg3 mi
Weather by CustomWeather, © 2024

See weather overview